Time;durP1;ratioP1;P1;durP2;ratioP2;P2;SDS_P1;SDS_P2;PMS_P1;PMS_P2;Temp;Humidity;BMP_temperature;BMP_pressure;BME280_temperature;BME280_humidity;BME280_pressure;Samples;Min_cycle;Max_cycle;Signal;HPM_P1;HPM_P2
2022/11/13 00:01:22;;;;;;;10.82;4.95;;;12.60;99.90;;;11.57;98.39;102799.25;4966249;28;20153;-81
2022/11/13 00:03:54;;;;;;;12.77;5.50;;;12.60;99.90;;;11.55;98.33;102795.75;4939510;28;20065;-81
2022/11/13 00:06:20;;;;;;;15.00;5.78;;;12.70;99.90;;;11.56;98.41;102794.88;4941230;28;20105;-82
2022/11/13 00:08:46;;;;;;;9.75;5.70;;;12.70;99.90;;;11.55;98.59;102785.19;4940345;28;20030;-81
2022/11/13 00:11:22;;;;;;;10.60;5.18;;;12.60;99.90;;;11.56;98.25;102789.59;4937983;28;20523;-81
2022/11/13 00:13:48;;;;;;;11.82;4.80;;;12.60;99.90;;;11.56;98.50;102789.59;4955191;28;20105;-81
2022/11/13 00:16:18;;;;;;;11.60;5.38;;;12.60;99.90;;;11.56;98.63;102800.16;4940922;28;20039;-81
2022/11/13 00:18:48;;;;;;;11.35;5.60;;;12.60;99.90;;;11.55;99.00;102790.47;4947676;28;20499;-81
2022/11/13 00:21:23;;;;;;;15.10;5.20;;;12.60;99.90;;;11.53;98.68;102792.28;4939039;28;20027;-81
2022/11/13 00:23:52;;;;;;;11.10;5.50;;;12.60;99.90;;;11.49;99.25;102782.69;4954641;28;20146;-82
2022/11/13 00:26:26;;;;;;;14.50;5.28;;;12.60;99.90;;;11.51;99.14;102791.44;4954339;28;20181;-81
2022/11/13 00:28:59;;;;;;;10.45;5.30;;;12.60;99.90;;;11.51;99.32;102786.16;4956920;28;20085;-81
2022/11/13 00:31:27;;;;;;;521.70;383.45;;;12.60;99.90;;;11.51;99.07;102778.22;4952896;28;20039;-81
2022/11/13 00:33:53;;;;;;;15.68;6.78;;;12.60;99.90;;;11.50;98.79;102784.44;4939351;28;20031;-81
2022/11/13 00:36:26;;;;;;;13.02;6.10;;;12.60;99.90;;;11.50;98.76;102777.38;4938563;28;20039;-81
2022/11/13 00:38:52;;;;;;;15.50;6.35;;;12.60;99.90;;;11.52;98.34;102777.34;4954004;28;20066;-82
2022/11/13 00:41:19;;;;;;;10.60;6.05;;;12.60;99.90;;;11.53;98.97;102767.66;4956880;28;20042;-82
2022/11/13 00:43:44;;;;;;;16.48;6.07;;;12.60;99.90;;;11.55;99.15;102772.00;4954687;28;20031;-81
2022/11/13 00:46:10;;;;;;;1999.90;999.90;;;12.60;99.90;;;11.52;98.95;102771.22;4954842;28;20027;-82
2022/11/13 00:48:41;;;;;;;4.50;4.30;;;12.60;99.90;;;11.48;98.28;102763.34;4947666;28;20037;-81
2022/11/13 00:51:07;;;;;;;6.03;5.72;;;12.60;99.90;;;11.48;98.39;102759.84;4957410;28;20035;-81
2022/11/13 00:53:33;;;;;;;5.57;5.28;;;12.50;99.90;;;11.45;98.05;102768.69;4955577;28;20054;-82
2022/11/13 00:55:59;;;;;;;5.30;5.00;;;12.50;99.90;;;11.39;98.48;102771.44;4954910;28;20093;-82
2022/11/13 00:58:25;;;;;;;3.67;3.47;;;12.50;99.90;;;11.39;98.39;102767.91;4937309;28;20027;-80
2022/11/13 01:00:51;;;;;;;3.00;2.90;;;12.50;99.90;;;11.34;98.63;102760.09;4951938;28;20518;-81
2022/11/13 01:03:20;;;;;;;2.38;2.28;;;12.50;99.90;;;11.37;98.72;102761.81;4955004;28;20038;-81
2022/11/13 01:05:46;;;;;;;3.30;3.10;;;12.50;99.90;;;11.37;98.51;102759.16;4953745;28;20023;-81
2022/11/13 01:08:14;;;;;;;15.77;13.57;;;12.50;99.90;;;11.34;98.47;102767.09;4952964;28;20415;-81
2022/11/13 01:10:50;;;;;;;4.25;4.05;;;12.40;99.90;;;11.31;98.54;102769.81;4954856;28;20065;-81
2022/11/13 01:13:16;;;;;;;46.20;10.77;;;12.40;99.90;;;11.26;98.54;102767.25;4951609;28;20145;-80
2022/11/13 01:15:43;;;;;;;1.20;1.20;;;12.40;99.90;;;11.27;99.21;102767.25;4956972;28;20037;-81
2022/11/13 01:18:11;;;;;;;1.20;1.20;;;12.40;99.90;;;11.29;99.12;102765.44;4955576;28;20023;-81
2022/11/13 01:20:41;;;;;;;1.20;1.20;;;12.40;99.90;;;11.33;98.75;102760.97;4939053;28;20023;-81
2022/11/13 01:23:07;;;;;;;1.50;1.50;;;12.40;99.90;;;11.34;98.81;102764.47;4955358;28;20030;-80
2022/11/13 01:25:33;;;;;;;1.40;1.40;;;12.40;99.90;;;11.34;98.66;102759.19;4953304;28;20090;-80
2022/11/13 01:27:59;;;;;;;1.58;1.58;;;12.40;99.90;;;11.36;98.57;102762.69;4957105;28;20479;-80
2022/11/13 01:30:25;;;;;;;1.30;1.30;;;12.40;99.90;;;11.31;99.14;102757.50;4956207;28;20122;-80
2022/11/13 01:32:51;;;;;;;7.15;4.93;;;12.40;99.90;;;11.33;98.19;102766.25;4956500;28;20038;-80
2022/11/13 01:35:24;;;;;;;1.13;1.13;;;12.40;99.90;;;11.33;98.84;102760.13;4957345;28;20106;-80
2022/11/13 01:37:50;;;;;;;1.20;1.20;;;12.40;99.90;;;11.33;98.11;102754.84;4957754;28;20028;-81
2022/11/13 01:40:16;;;;;;;1.00;1.00;;;12.40;99.90;;;11.31;98.94;102762.75;4959190;28;20095;-79
2022/11/13 01:42:41;;;;;;;1.00;1.00;;;12.40;99.90;;;11.32;98.66;102761.00;4957977;28;20043;-80
2022/11/13 01:46:08;;;;;;;1.00;1.00;;;12.40;99.90;;;11.33;98.45;102760.97;4958287;28;20039;-79
2022/11/13 01:48:40;;;;;;;1.00;1.00;;;12.40;99.90;;;11.32;98.41;102761.00;4962444;28;20043;-79
2022/11/13 01:51:23;;;;;;;1.20;1.20;;;12.40;99.90;;;11.29;98.51;102760.19;4956551;28;20023;-80
2022/11/13 01:53:49;;;;;;;1.20;1.20;;;12.40;99.90;;;11.23;98.66;102757.63;4958926;28;20077;-80
2022/11/13 01:56:16;;;;;;;1.00;1.00;;;12.40;99.90;;;11.24;99.01;102748.81;4958413;28;20518;-80
2022/11/13 01:58:53;;;;;;;0.90;0.90;;;12.30;99.90;;;11.22;99.07;102739.19;4959305;28;20058;-80
2022/11/13 02:01:19;;;;;;;1.10;1.10;;;12.40;99.90;;;11.21;99.18;102743.59;4961431;28;20023;-80
2022/11/13 02:03:45;;;;;;;1.20;1.20;;;12.30;99.90;;;11.22;98.81;102739.19;4946168;28;20034;-80
2022/11/13 02:06:12;;;;;;;1.20;1.20;;;12.30;99.90;;;11.23;98.44;102736.53;4945140;28;20054;-79
2022/11/13 02:08:41;;;;;;;1.20;1.20;;;12.40;99.90;;;11.23;98.61;102744.44;4958303;28;20059;-80
2022/11/13 02:11:07;;;;;;;1.20;1.20;;;12.30;99.90;;;11.25;98.83;102737.38;4935212;28;20027;-80
2022/11/13 02:13:34;;;;;;;1.10;1.10;;;12.40;99.90;;;11.24;98.82;102734.78;4942985;28;20034;-80
2022/11/13 02:16:00;;;;;;;1.02;1.02;;;12.40;99.90;;;11.22;98.83;102726.88;4945372;28;20094;-80
2022/11/13 02:18:31;;;;;;;0.90;0.90;;;12.30;99.90;;;11.21;99.30;102733.06;4958182;28;20035;-80
2022/11/13 02:21:24;;;;;;;0.70;0.70;;;12.30;99.90;;;11.18;99.29;102726.97;4944157;28;20035;-80
2022/11/13 02:24:18;;;;;;;0.80;0.80;;;12.30;99.90;;;11.18;99.56;102726.97;4960728;28;20133;-80
2022/11/13 02:26:44;;;;;;;3.03;2.35;;;12.30;99.90;;;11.16;99.54;102718.19;4957629;28;20034;-81
2022/11/13 02:29:10;;;;;;;0.40;0.40;;;12.30;99.90;;;11.19;99.92;102723.44;4959067;28;20045;-81
2022/11/13 02:31:38;;;;;;;0.40;0.40;;;12.30;99.90;;;11.15;100.00;102725.25;4957704;28;20519;-80
2022/11/13 02:34:04;;;;;;;0.40;0.40;;;12.20;99.90;;;11.16;99.97;102720.84;4941741;28;20519;-80
2022/11/13 02:36:30;;;;;;;0.30;0.30;;;12.30;99.90;;;11.16;99.93;102716.44;4941208;28;20178;-80
2022/11/13 02:39:00;;;;;;;0.30;0.30;;;12.20;99.90;;;11.15;99.96;102722.63;4959975;28;20030;-80
2022/11/13 02:41:31;;;;;;;71.75;45.45;;;12.30;99.90;;;11.14;100.00;102720.84;4958212;28;20031;-80
2022/11/13 02:43:57;;;;;;;2.95;1.85;;;12.20;99.90;;;11.14;99.97;102715.59;4956692;28;20031;-80
2022/11/13 02:46:22;;;;;;;0.00;0.00;;;12.20;99.90;;;11.15;99.88;102727.88;4955840;28;20033;-80
2022/11/13 02:48:48;;;;;;;0.00;0.00;;;12.30;99.90;;;11.15;100.00;102725.25;4941426;28;20042;-80
2022/11/13 02:51:14;;;;;;;0.00;0.00;;;12.30;99.90;;;11.17;99.72;102723.47;4942542;28;20155;-79
2022/11/13 02:53:40;;;;;;;0.00;0.00;;;12.30;99.90;;;11.19;99.76;102719.03;4955757;28;20039;-80
2022/11/13 02:56:09;;;;;;;0.00;0.00;;;12.30;99.90;;;11.18;100.00;102714.63;4941286;28;20086;-80
2022/11/13 02:58:34;;;;;;;0.00;0.00;;;12.30;99.90;;;11.16;100.00;102715.56;4955998;28;20032;-80
2022/11/13 03:01:02;;;;;;;0.00;0.00;;;12.30;99.90;;;11.16;99.96;102712.94;4966353;28;20106;-80
2022/11/13 03:03:28;;;;;;;0.00;0.00;;;12.30;99.90;;;11.16;99.63;102710.28;4958714;28;20027;-80
2022/11/13 03:05:54;;;;;;;0.00;0.00;;;12.30;99.90;;;11.15;99.32;102705.94;4958269;28;20510;-81
2022/11/13 03:08:24;;;;;;;0.00;0.00;;;12.30;99.90;;;11.17;99.39;102705.00;4957534;28;20046;-80
2022/11/13 03:10:52;;;;;;;0.00;0.00;;;12.30;99.90;;;11.18;99.58;102705.88;4956277;28;20037;-81
2022/11/13 03:13:18;;;;;;;0.00;0.00;;;12.20;99.90;;;11.16;99.49;102697.97;4956995;28;20030;-80
2022/11/13 03:15:43;;;;;;;0.00;0.00;;;12.30;99.90;;;11.16;99.52;102705.03;4941610;28;20082;-80
2022/11/13 03:18:12;;;;;;;0.00;0.00;;;12.20;99.90;;;11.13;100.00;102703.31;4955589;28;20027;-80
2022/11/13 03:20:43;;;;;;;0.00;0.00;;;12.30;99.90;;;11.11;100.00;102704.25;4958159;28;20514;-80
2022/11/13 03:23:09;;;;;;;0.00;0.00;;;12.20;99.90;;;11.09;99.68;102701.63;4940449;28;20031;-80
2022/11/13 03:25:35;;;;;;;0.00;0.00;;;12.20;99.90;;;11.06;100.00;102696.41;4958436;28;20472;-80
2022/11/13 03:28:01;;;;;;;0.00;0.00;;;12.20;99.90;;;11.03;100.00;102699.09;4959045;28;20098;-80
2022/11/13 03:30:27;;;;;;;0.00;0.00;;;12.20;99.90;;;11.03;100.00;102704.34;4956914;28;20530;-80
2022/11/13 03:32:56;;;;;;;0.00;0.00;;;12.20;99.90;;;11.01;100.00;102696.47;4939809;28;20641;-80
2022/11/13 03:35:24;;;;;;;0.00;0.00;;;12.10;99.90;;;10.97;100.00;102693.91;4940883;28;20080;-80
2022/11/13 03:37:50;;;;;;;0.00;0.00;;;12.10;99.90;;;10.94;100.00;102696.63;4973628;28;20114;-80
2022/11/13 03:40:16;;;;;;;0.00;0.00;;;12.10;99.90;;;10.97;100.00;102700.09;4958198;28;20023;-80
2022/11/13 03:42:42;;;;;;;0.00;0.00;;;12.10;99.90;;;11.00;100.00;102699.16;4956056;28;20377;-80
2022/11/13 03:45:08;;;;;;;0.00;0.00;;;12.10;99.90;;;11.00;100.00;102700.00;4954633;28;20037;-80
2022/11/13 03:47:37;;;;;;;0.00;0.00;;;12.10;99.90;;;11.03;100.00;102709.63;4955096;28;20229;-80
2022/11/13 03:50:03;;;;;;;0.00;0.00;;;12.10;99.90;;;11.04;100.00;102711.38;4958357;28;20053;-80
2022/11/13 03:52:28;;;;;;;0.00;0.00;;;12.10;99.90;;;11.01;100.00;102707.00;4947349;28;20448;-81
2022/11/13 03:54:54;;;;;;;0.00;0.00;;;12.10;99.90;;;11.02;100.00;102707.91;4954826;28;20085;-80
2022/11/13 03:57:20;;;;;;;0.00;0.00;;;12.10;99.90;;;11.02;100.00;102707.91;4955306;28;20468;-80
2022/11/13 03:59:46;;;;;;;0.00;0.00;;;12.10;99.90;;;11.02;100.00;102713.19;4954724;28;20162;-80
2022/11/13 04:02:11;;;;;;;0.00;0.00;;;12.10;99.90;;;11.02;100.00;102708.78;4956750;28;20116;-80
2022/11/13 04:04:37;;;;;;;0.00;0.00;;;12.10;99.90;;;11.01;100.00;102717.56;4941689;28;20113;-80
2022/11/13 04:07:03;;;;;;;0.00;0.00;;;12.10;99.90;;;11.01;100.00;102720.19;4963413;28;20030;-80
2022/11/13 04:09:29;;;;;;;0.00;0.00;;;12.10;99.90;;;10.99;100.00;102713.22;4962708;28;20022;-80
2022/11/13 04:11:55;;;;;;;0.00;0.00;;;12.10;99.90;;;10.99;100.00;102710.56;4954856;28;20033;-79
2022/11/13 04:14:20;;;;;;;0.00;0.00;;;12.10;99.90;;;10.99;100.00;102714.09;4972888;28;20113;-79
2022/11/13 04:16:46;;;;;;;0.00;0.00;;;12.10;99.90;;;11.01;100.00;102708.78;4955374;28;20752;-79
2022/11/13 04:19:12;;;;;;;0.00;0.00;;;12.10;99.90;;;11.02;100.00;102708.78;4939012;28;20122;-80
2022/11/13 04:21:38;;;;;;;0.00;0.00;;;12.10;99.90;;;10.99;100.00;102703.56;4954905;28;20118;-80
2022/11/13 04:24:04;;;;;;;0.00;0.00;;;12.10;99.90;;;11.02;100.00;102694.72;4954948;28;20173;-79
2022/11/13 04:26:30;;;;;;;0.00;0.00;;;12.10;99.90;;;11.01;100.00;102703.50;4956848;28;20049;-80
2022/11/13 04:28:58;;;;;;;0.00;0.00;;;12.10;99.90;;;11.02;100.00;102707.91;4958104;28;20027;-80
2022/11/13 04:31:23;;;;;;;0.00;0.00;;;12.10;99.90;;;10.98;100.00;102701.81;4956009;28;20047;-79
2022/11/13 04:33:49;;;;;;;0.00;0.00;;;12.10;99.90;;;10.95;100.00;102693.97;4972051;28;20057;-80
2022/11/13 04:36:15;;;;;;;0.00;0.00;;;12.10;99.90;;;10.91;100.00;102692.28;4940687;28;20057;-79
2022/11/13 04:38:41;;;;;;;0.00;0.00;;;12.00;99.90;;;10.93;100.00;102689.59;4957926;28;20037;-79
2022/11/13 04:43:54;;;;;;;0.00;0.00;;;12.10;99.90;;;10.92;100.00;102695.78;4957142;28;20695;-80
2022/11/13 04:46:20;;;;;;;0.00;0.00;;;12.00;99.90;;;10.91;100.00;102686.09;4939699;28;20027;-80
2022/11/13 04:48:45;;;;;;;0.00;0.00;;;12.00;99.90;;;10.90;100.00;102679.97;4955138;28;20410;-80
2022/11/13 04:51:12;;;;;;;0.00;0.00;;;12.00;99.90;;;10.81;100.00;102677.50;4972584;28;20113;-80
2022/11/13 04:53:37;;;;;;;0.00;0.00;;;11.90;99.90;;;10.76;100.00;102679.34;4954477;28;20116;-80
2022/11/13 04:56:03;;;;;;;0.00;0.00;;;11.90;99.90;;;10.77;100.00;102684.56;4939716;28;20487;-79
2022/11/13 04:58:34;;;;;;;0.00;0.00;;;12.00;99.90;;;10.80;100.00;102683.69;4939264;28;20104;-80
2022/11/13 05:01:00;;;;;;;0.00;0.00;;;12.00;99.90;;;10.80;100.00;102679.28;4957710;28;20484;-80
2022/11/13 05:03:28;;;;;;;0.00;0.00;;;11.90;99.90;;;10.82;100.00;102685.38;4956521;28;20037;-79
2022/11/13 05:06:05;;;;;;;0.00;0.00;;;11.90;99.90;;;10.85;100.00;102673.91;4940127;28;20038;-80
2022/11/13 05:08:31;;;;;;;0.00;0.00;;;12.00;99.90;;;10.83;100.00;102673.94;4959108;28;20027;-80
2022/11/13 05:10:57;;;;;;;0.00;0.00;;;12.00;99.90;;;10.84;100.00;102665.16;4942318;28;20049;-80
2022/11/13 05:13:24;;;;;;;0.00;0.00;;;12.00;99.90;;;10.85;100.00;102671.28;4957763;28;20035;-80
2022/11/13 05:15:59;;;;;;;0.00;0.00;;;12.00;99.90;;;10.85;100.00;102677.41;4959819;28;20040;-80
2022/11/13 05:18:25;;;;;;;0.00;0.00;;;12.00;99.90;;;10.86;100.00;102676.53;4941995;28;20557;-80
2022/11/13 05:20:51;;;;;;;0.00;0.00;;;12.00;99.90;;;10.86;100.00;102681.81;4958758;28;20058;-80
2022/11/13 05:23:22;;;;;;;0.00;0.00;;;12.00;99.90;;;10.82;100.00;102679.22;4958245;28;20106;-80
2022/11/13 05:25:48;;;;;;;7.25;6.72;;;11.90;99.90;;;10.80;100.00;102675.78;4944124;28;20198;-80
2022/11/13 05:28:14;;;;;;;1.88;1.75;;;11.90;99.90;;;10.68;100.00;102677.69;4943180;28;20360;-80
2022/11/13 05:30:40;;;;;;;0.10;0.10;;;11.90;99.90;;;10.71;100.00;102676.75;4957708;28;20041;-80
2022/11/13 05:33:05;;;;;;;0.10;0.10;;;11.90;99.90;;;10.73;100.00;102674.97;4957405;28;20077;-80
2022/11/13 05:35:31;;;;;;;0.73;0.73;;;11.90;99.90;;;10.76;100.00;102677.56;4957111;28;20126;-80
2022/11/13 05:38:02;;;;;;;0.10;0.10;;;11.90;99.90;;;10.78;100.00;102678.41;4942604;28;20081;-79
2022/11/13 05:40:29;;;;;;;0.47;0.47;;;11.90;99.90;;;10.80;100.00;102674.00;4960275;28;20387;-80
2022/11/13 05:42:55;;;;;;;0.00;0.00;;;11.90;99.90;;;10.78;100.00;102670.53;4941977;28;20396;-79
2022/11/13 05:45:22;;;;;;;0.00;0.00;;;11.90;99.90;;;10.79;100.00;102677.50;4958479;28;20035;-80
2022/11/13 05:47:49;;;;;;;0.00;0.00;;;11.90;99.90;;;10.78;100.00;102669.66;4945977;28;20496;-81
2022/11/13 05:50:19;;;;;;;0.00;0.00;;;11.90;99.90;;;10.76;100.00;102664.41;4966733;28;20046;-81
2022/11/13 05:52:45;;;;;;;0.00;0.00;;;11.90;99.90;;;10.71;100.00;102652.19;4951205;28;20047;-81
2022/11/13 05:55:11;;;;;;;0.00;0.00;;;11.90;99.90;;;10.69;100.00;102660.13;4966808;28;20066;-81
2022/11/13 05:57:37;;;;;;;0.00;0.00;;;11.90;99.90;;;10.73;100.00;102661.81;4972199;28;20055;-81
2022/11/13 06:00:04;;;;;;;0.00;0.00;;;11.80;99.90;;;10.72;100.00;102652.16;4967433;28;20118;-81
2022/11/13 06:02:32;;;;;;;0.00;0.00;;;11.90;99.90;;;10.74;100.00;102654.78;4963883;28;20073;-80
2022/11/13 06:04:58;;;;;;;0.00;0.00;;;11.90;99.90;;;10.74;100.00;102650.38;4951386;28;20035;-81
2022/11/13 06:07:24;;;;;;;0.00;0.00;;;11.90;99.90;;;10.76;100.00;102653.88;4949096;28;20074;-79
2022/11/13 06:09:50;;;;;;;0.00;0.00;;;11.90;99.90;;;10.76;100.00;102656.50;4964971;28;20046;-81
2022/11/13 06:12:15;;;;;;;0.00;0.00;;;11.90;99.90;;;10.75;100.00;102657.38;4979207;28;21285;-80
2022/11/13 06:14:41;;;;;;;0.00;0.00;;;11.80;99.90;;;10.74;100.00;102652.16;4950781;28;20162;-81
2022/11/13 06:17:07;;;;;;;0.00;0.00;;;11.90;99.90;;;10.74;100.00;102647.75;4949226;28;20114;-81
2022/11/13 06:19:33;;;;;;;0.00;0.00;;;11.90;99.90;;;10.74;100.00;102641.63;4963796;28;20054;-80
2022/11/13 06:22:01;;;;;;;0.00;0.00;;;11.80;99.90;;;10.67;100.00;102639.06;4946734;28;20806;-82
2022/11/13 06:24:27;;;;;;;0.00;0.00;;;11.80;99.90;;;10.65;100.00;102642.63;4963736;28;20380;-81
2022/11/13 06:26:52;;;;;;;0.00;0.00;;;11.80;99.90;;;10.62;100.00;102640.03;4963542;28;20130;-81
2022/11/13 06:29:18;;;;;;;0.00;0.00;;;11.80;99.90;;;10.58;100.00;102648.88;4965606;28;20046;-80
2022/11/13 06:31:44;;;;;;;0.00;0.00;;;11.70;99.90;;;10.54;100.00;102636.66;4949296;28;20030;-80
2022/11/13 06:34:10;;;;;;;0.00;0.00;;;11.70;99.90;;;10.52;100.00;102643.69;4948519;28;20047;-80
2022/11/13 06:36:46;;;;;;;0.00;0.00;;;11.70;99.90;;;10.58;100.00;102643.59;4964144;28;20438;-81
2022/11/13 06:39:12;;;;;;;0.00;0.00;;;11.70;99.90;;;10.44;100.00;102647.34;4965594;28;20039;-81
2022/11/13 06:41:38;;;;;;;0.00;0.00;;;11.60;99.90;;;10.43;100.00;102642.97;4947679;28;20030;-81
2022/11/13 06:44:04;;;;;;;0.00;0.00;;;11.70;99.90;;;10.51;100.00;102647.25;4966033;28;20026;-81
2022/11/13 06:46:30;;;;;;;0.00;0.00;;;11.70;99.90;;;10.54;100.00;102652.44;4964863;28;20392;-81
2022/11/13 06:48:57;;;;;;;0.00;0.00;;;11.70;99.90;;;10.56;100.00;102650.66;4962400;28;20031;-81
2022/11/13 06:51:27;;;;;;;0.00;0.00;;;11.70;99.90;;;10.59;100.00;102640.97;4953139;28;20030;-80
2022/11/13 06:53:53;;;;;;;0.00;0.00;;;11.70;99.90;;;10.51;100.00;102647.25;4950346;28;20121;-81
2022/11/13 06:56:20;;;;;;;0.00;0.00;;;11.70;99.90;;;10.59;100.00;102645.38;4980508;28;20064;-81
2022/11/13 06:58:49;;;;;;;0.00;0.00;;;11.70;99.90;;;10.58;100.00;102648.88;4946593;28;20156;-81
2022/11/13 07:01:19;;;;;;;0.00;0.00;;;11.70;99.90;;;10.62;100.00;102647.94;4961171;28;20435;-81
2022/11/13 07:03:45;;;;;;;14.35;7.20;;;11.80;99.90;;;10.67;100.00;102646.13;4963418;28;20031;-81
2022/11/13 07:06:19;;;;;;;4.65;3.95;;;11.70;99.90;;;10.60;100.00;102647.09;4949761;28;20031;-82
2022/11/13 07:08:46;;;;;;;1.65;1.55;;;11.80;99.90;;;10.60;100.00;102653.22;4965106;28;20435;-81
2022/11/13 07:11:15;;;;;;;0.00;0.00;;;11.70;99.90;;;10.51;100.00;102649.88;4963026;28;20027;-81
2022/11/13 07:13:44;;;;;;;0.05;0.05;;;11.70;99.90;;;10.52;100.00;102649.88;4963873;28;20043;-81
2022/11/13 07:16:11;;;;;;;0.10;0.10;;;11.70;99.90;;;10.53;100.00;102642.81;4963215;28;20043;-82
2022/11/13 07:18:37;;;;;;;0.10;0.10;;;11.80;99.90;;;10.54;100.00;102641.91;4965070;28;20038;-81
2022/11/13 07:21:10;;;;;;;0.10;0.10;;;11.80;99.90;;;10.55;100.00;102651.56;4971624;28;20023;-82
2022/11/13 07:23:41;;;;;;;0.10;0.10;;;11.70;99.90;;;10.42;100.00;102640.34;4955760;28;20073;-83
2022/11/13 07:26:10;;;;;;;0.10;0.10;;;11.70;99.90;;;10.40;100.00;102642.16;4954837;28;20494;-82
2022/11/13 07:28:40;;;;;;;0.13;0.13;;;11.70;99.90;;;10.39;100.00;102649.19;4954372;28;20035;-82
2022/11/13 07:31:06;;;;;;;0.20;0.20;;;11.60;99.90;;;10.39;100.00;102658.84;4957147;28;20028;-82
2022/11/13 07:33:33;;;;;;;0.20;0.20;;;11.70;99.90;;;10.46;100.00;102655.22;4969052;28;20034;-82
2022/11/13 07:35:59;;;;;;;0.00;0.00;;;11.60;99.90;;;10.41;100.00;102659.66;4968092;28;20050;-82
2022/11/13 07:38:25;;;;;;;193.40;116.40;;;11.60;99.90;;;10.33;100.00;102657.16;4965258;28;20126;-82
2022/11/13 07:40:51;;;;;;;25.05;9.77;;;11.60;99.90;;;10.38;100.00;102667.63;4952699;28;20110;-83
2022/11/13 07:43:24;;;;;;;46.03;24.35;;;11.60;99.90;;;10.29;100.00;102670.38;4965123;28;20130;-82
2022/11/13 07:45:53;;;;;;;59.65;30.23;;;11.60;99.90;;;10.35;100.00;102668.56;4967865;28;20026;-82
2022/11/13 07:48:21;;;;;;;48.75;25.60;;;11.60;99.90;;;10.43;100.00;102657.88;4980995;28;20034;-83
2022/11/13 07:50:50;;;;;;;44.55;21.48;;;11.60;99.90;;;10.44;100.00;102662.28;4950895;28;20511;-83
2022/11/13 07:53:16;;;;;;;43.38;22.10;;;11.60;99.90;;;10.46;100.00;102658.72;4952088;28;20034;-83
2022/11/13 07:55:42;;;;;;;44.17;22.23;;;11.70;99.90;;;10.52;100.00;102663.03;4965317;28;20043;-82
2022/11/13 07:58:09;;;;;;;39.53;22.88;;;;;;;10.56;100.00;102651.56;4966793;28;20506;-82
2022/11/13 08:00:35;;;;;;;36.70;20.38;;;11.70;99.90;;;10.60;100.00;102653.22;4964967;28;20475;-82
2022/11/13 08:03:11;;;;;;;43.92;20.90;;;11.80;99.90;;;10.62;100.00;102647.94;4948512;28;20062;-82
2022/11/13 08:05:38;;;;;;;38.58;21.70;;;11.80;99.90;;;10.64;100.00;102644.38;4969757;28;20027;-81
2022/11/13 08:08:05;;;;;;;40.53;21.50;;;11.80;99.90;;;10.57;100.00;102649.78;4966616;28;20027;-82
2022/11/13 08:10:34;;;;;;;47.28;23.50;;;11.80;99.90;;;10.62;100.00;102655.84;4949897;28;20038;-81
2022/11/13 08:13:04;;;;;;;43.28;20.35;;;11.80;99.90;;;10.72;100.00;102653.94;4963475;28;21299;-83
2022/11/13 08:15:31;;;;;;;34.20;20.73;;;11.80;99.90;;;10.75;100.00;102660.00;4948165;28;20058;-83
2022/11/13 08:18:05;;;;;;;36.53;20.48;;;11.90;99.90;;;10.65;100.00;102656.66;4963140;28;20117;-83
2022/11/13 08:20:31;;;;;;;38.50;21.15;;;11.90;99.90;;;10.77;100.00;102655.59;4949256;28;20038;-82
2022/11/13 08:23:06;;;;;;;40.42;19.60;;;11.90;99.90;;;10.85;100.00;102651.06;4962520;28;20057;-82
2022/11/13 08:25:32;;;;;;;35.13;19.42;;;12.00;99.90;;;10.81;100.00;102654.66;4962008;28;20065;-83
2022/11/13 08:27:59;;;;;;;35.65;18.35;;;12.00;99.90;;;10.93;100.00;102652.69;4978248;28;20058;-82
2022/11/13 08:30:27;;;;;;;33.10;18.13;;;12.10;99.90;;;11.03;100.00;102651.63;4949129;28;20042;-81
2022/11/13 08:32:56;;;;;;;35.22;17.15;;;12.10;99.90;;;11.07;100.00;102648.91;4960583;28;20372;-82
2022/11/13 08:35:22;;;;;;;34.47;15.63;;;12.20;99.90;;;11.14;100.00;102647.03;4963235;28;20042;-83
2022/11/13 08:37:48;;;;;;;29.65;15.50;;;12.30;99.90;;;11.28;100.00;102646.78;4964676;28;20038;-82
2022/11/13 08:40:14;;;;;;;25.75;14.35;;;12.40;99.90;;;11.32;100.00;102637.03;4968510;28;20043;-82
2022/11/13 08:42:39;;;;;;;30.40;14.88;;;12.40;99.90;;;11.29;100.00;102638.88;4955725;28;20090;-82
2022/11/13 08:45:06;;;;;;;22.73;11.77;;;12.40;99.90;;;11.09;100.00;102633.94;4971892;28;20026;-83
2022/11/13 08:47:32;;;;;;;20.40;13.02;;;12.80;99.90;;;11.15;100.00;102632.97;4952980;28;20029;-83
2022/11/13 08:50:00;;;;;;;29.65;13.57;;;12.40;99.90;;;11.28;100.00;102623.91;4970288;28;20117;-82
2022/11/13 08:52:26;;;;;;;26.52;13.48;;;12.40;99.90;;;11.33;100.00;102630.88;4956107;28;20111;-83
2022/11/13 08:54:52;;;;;;;24.48;13.75;;;12.40;99.90;;;11.28;100.00;102629.19;4973452;28;20094;-82
2022/11/13 08:57:18;;;;;;;82.95;60.30;;;12.50;99.90;;;11.38;100.00;102631.66;4970883;28;20085;-82
2022/11/13 08:59:43;;;;;;;24.25;12.05;;;12.50;99.90;;;11.27;100.00;102632.75;4954511;28;20015;-82
2022/11/13 09:02:14;;;;;;;178.48;73.93;;;12.40;99.90;;;11.12;100.00;102632.16;4966349;28;20087;-82
2022/11/13 09:04:43;;;;;;;264.65;88.43;;;12.40;99.90;;;11.15;100.00;102632.97;4967740;28;20023;-83
2022/11/13 09:07:10;;;;;;;105.22;26.15;;;12.40;99.90;;;11.25;100.00;102631.91;4950328;28;20042;-83
2022/11/13 09:09:39;;;;;;;15.80;9.18;;;12.40;99.90;;;11.19;100.00;102631.16;4966593;28;20126;-83
2022/11/13 09:12:13;;;;;;;22.80;11.88;;;12.40;99.90;;;11.21;100.00;102624.94;4965698;28;20039;-83
2022/11/13 09:14:39;;;;;;;30.33;19.17;;;12.40;99.90;;;11.20;100.00;102628.47;4966251;28;20034;-83
2022/11/13 09:17:04;;;;;;;25.02;12.95;;;12.40;99.90;;;11.18;100.00;102626.75;4968607;28;20050;-83
2022/11/13 09:19:30;;;;;;;30.15;17.42;;;12.40;99.90;;;11.16;100.00;102629.41;4964033;28;20034;-81
2022/11/13 09:22:01;;;;;;;28.65;15.48;;;12.40;99.90;;;11.17;100.00;102627.69;4980287;28;20471;-80
2022/11/13 09:24:27;;;;;;;19.42;11.20;;;12.30;99.90;;;11.13;100.00;102632.13;4972122;28;20020;-81
2022/11/13 09:26:53;;;;;;;19.90;12.82;;;12.30;99.90;;;11.04;100.00;102625.25;4964682;28;20056;-79
2022/11/13 09:29:22;;;;;;;17.40;9.30;;;12.20;99.90;;;10.88;100.00;102626.41;4966890;28;20034;-80
2022/11/13 09:31:54;;;;;;;19.35;11.82;;;12.20;99.90;;;10.96;100.00;102628.94;4964228;28;20043;-80
2022/11/13 09:34:21;;;;;;;16.73;10.23;;;12.20;99.90;;;10.94;100.00;102628.09;4962644;28;20125;-80
2022/11/13 09:36:50;;;;;;;16.52;10.00;;;12.20;99.90;;;10.97;100.00;102635.94;4947448;28;20043;-81
2022/11/13 09:39:16;;;;;;;16.20;9.23;;;12.20;99.90;;;10.97;100.00;102630.66;4964832;28;20035;-81
2022/11/13 09:42:05;;;;;;;20.48;9.18;;;12.10;99.90;;;10.94;100.00;102636.00;4959514;28;20046;-83
2022/11/13 09:44:46;;;;;;;21.15;9.32;;;12.10;99.90;;;10.92;100.00;102633.38;4950124;28;20087;-82
2022/11/13 09:47:24;;;;;;;20.80;11.32;;;12.10;99.90;;;10.88;100.00;102627.31;4966666;28;20059;-83
2022/11/13 09:50:05;;;;;;;11.73;7.43;;;12.00;99.90;;;10.75;100.00;102631.03;4982024;28;20447;-82
2022/11/13 09:52:44;;;;;;;15.45;8.63;;;12.00;99.90;;;10.84;100.00;102633.53;4948138;28;20042;-83
2022/11/13 09:55:18;;;;;;;14.15;9.15;;;12.10;99.90;;;10.91;100.00;102628.13;4948608;28;20677;-84
2022/11/13 09:58:16;;;;;;;14.35;8.20;;;12.10;99.90;;;10.88;100.00;102636.97;4965379;28;20035;-82
2022/11/13 10:00:42;;;;;;;19.10;11.55;;;12.10;99.90;;;10.92;100.00;102633.38;4963902;28;20498;-82
2022/11/13 10:03:38;;;;;;;35.22;22.67;;;12.00;99.90;;;11.01;100.00;102629.72;4947389;28;20066;-82
2022/11/13 10:06:49;;;;;;;18.30;9.90;;;12.20;99.90;;;11.09;100.00;102633.06;4981890;28;20113;-81
2022/11/13 10:09:45;;;;;;;17.35;11.25;;;12.20;99.90;;;11.16;100.00;102621.50;4956967;28;20053;-81
2022/11/13 10:12:15;;;;;;;20.50;12.90;;;12.30;99.90;;;11.22;100.00;102618.75;4960574;28;20042;-82
2022/11/13 10:14:54;;;;;;;23.40;13.07;;;12.20;99.90;;;11.09;100.00;102620.75;4945470;28;20039;-83